Main page
METAR-TAF:

METAR-TAF

Airports :

Longyearbyen, Norway

Svalbard Airport

latitude: 78-15N, longitude: 015-28E, elevation: 2 m

Current weather observation

The report was made 36 minutes ago, at 07:20 UTC
Wind 2 kt from variable directions
Temperature -11°C
Humidity 72%
Pressure 999 hPa
Visibility 10 km or more
Few clouds at a height of 1000 ft
Scattered clouds at a height of 1500 ft
Broken clouds at a height of 2000 ft

METAR: ENSB 240720Z VRB02KT 9999 FEW010 SCT015 BKN020 M11/M15 Q0999 NOSIG

Time: 08:56 (07:56 UTC)

Forecast

Forecast valid from 24 at 06 UTC to 25 at 06 UTC
Wind 5 kt from variable directions
Visibility 10 km or more
Few clouds at a height of 1500 ft
Broken clouds at a height of 4000 ft
Becoming
from 24 at 09 UTC to 24 at 12 UTC
Wind 10 kt from the East/Southeast
Temporary
from 24 at 12 UTC to 25 at 06 UTC
Wind 15 kt from the East/Northeast

TAF: ENSB 2406/2506 VRB05KT 9999 FEW015 BKN040 BECMG 2409/2412 12010KT TEMPO 2412/2506 06015KT

Weather observations and forecasts of more than 4000 airports (METAR and TAF reports).

The available stations are represented by yellow and red dots on the map.

Hover mouse over dot to see the name of the station.

Then click to see weather observations and forecasts.

To change the map : click on the green buttons with a black cross to zoom in, on the green button with a dash to zoom out, or on the green arrows for adjacent maps.


METAR-TAF: